To NAV CANADA Home Page Login to a new session Search on AWWS site Feedback and Comments Disclaimer Vers la page française équivalente Tips FAQ What's new on the site To the Forecasts and Observations / NOTAM section To "File a Flight Plan" website Publications and other links Update of the User's profile FIC Telephone Numbers My Weather Data Folder Route Weather Data Regional Weather Data Local Weather Data To the Forecasts and Observations / NOTAM section
Request Generated 07/06/2015 at 00:54:51 UTC . Weather information available at that time is displayed.

METAR/TAF

KINDERSLEY/KINDERSLEY REGIONAL/SK    

METAR CYKY 060000Z 35011KT 15SM FEW020TCU BKN040 BKN070 OVC240 16/10
A3013 RMK TCU1SC4AC2CI1 TCU W QUAD SLP210 DENSITY ALT 2600FT=
METAR CYKY 052300Z 31013KT 15SM SCT020 OVC040 16/09 A3011 RMK SC3SC5
TCU TOPS NE-E SLP203 DENSITY ALT 2700FT=
METAR CYKY 052200Z 34008KT 15SM OVC040 17/09 A3011 RMK SC8 TCU ALQDS
SLP201 DENSITY ALT 2800FT=

CYKY - No TAF is issued for this station

Your time UTC time
Weather data provided by Environment Canada and NAV CANADA